sensor_id;sensor_type;location;lat;lon;timestamp;temperature;humidity
1103;DHT22;538;42.654;23.376;2022-09-09T00:00:19;19.20;41.00
1103;DHT22;538;42.654;23.376;2022-09-09T00:02:55;19.20;41.40
1103;DHT22;538;42.654;23.376;2022-09-09T00:05:29;19.10;42.70
1103;DHT22;538;42.654;23.376;2022-09-09T00:08:00;19.10;42.60
1103;DHT22;538;42.654;23.376;2022-09-09T00:10:33;19.10;43.30
1103;DHT22;538;42.654;23.376;2022-09-09T00:13:14;19.10;42.70
1103;DHT22;538;42.654;23.376;2022-09-09T00:15:59;19.00;44.00
1103;DHT22;538;42.654;23.376;2022-09-09T00:18:31;19.00;45.40
1103;DHT22;538;42.654;23.376;2022-09-09T00:21:04;19.00;45.90
1103;DHT22;538;42.654;23.376;2022-09-09T00:23:35;19.00;45.70
1103;DHT22;538;42.654;23.376;2022-09-09T00:26:10;18.90;45.10
1103;DHT22;538;42.654;23.376;2022-09-09T00:28:45;19.00;45.10
1103;DHT22;538;42.654;23.376;2022-09-09T00:31:16;18.90;45.40
1103;DHT22;538;42.654;23.376;2022-09-09T00:33:46;19.00;44.80
1103;DHT22;538;42.654;23.376;2022-09-09T00:36:18;19.00;45.40
1103;DHT22;538;42.654;23.376;2022-09-09T00:38:51;19.00;45.40
1103;DHT22;538;42.654;23.376;2022-09-09T00:41:31;18.90;45.40
1103;DHT22;538;42.654;23.376;2022-09-09T00:44:13;18.80;45.30
1103;DHT22;538;42.654;23.376;2022-09-09T00:46:54;18.80;45.40
1103;DHT22;538;42.654;23.376;2022-09-09T00:49:30;18.60;46.10
1103;DHT22;538;42.654;23.376;2022-09-09T00:52:12;18.60;45.50
1103;DHT22;538;42.654;23.376;2022-09-09T00:54:50;18.50;45.70
1103;DHT22;538;42.654;23.376;2022-09-09T00:57:26;18.50;45.80
1103;DHT22;538;42.654;23.376;2022-09-09T01:00:16;18.40;45.50
1103;DHT22;538;42.654;23.376;2022-09-09T01:02:58;18.30;46.00
1103;DHT22;538;42.654;23.376;2022-09-09T01:05:35;18.20;46.80
1103;DHT22;538;42.654;23.376;2022-09-09T01:08:09;18.20;47.00
1103;DHT22;538;42.654;23.376;2022-09-09T01:10:44;18.10;47.60
1103;DHT22;538;42.654;23.376;2022-09-09T01:13:21;18.10;48.10
1103;DHT22;538;42.654;23.376;2022-09-09T01:15:49;18.20;47.90
1103;DHT22;538;42.654;23.376;2022-09-09T01:18:21;18.20;46.90
1103;DHT22;538;42.654;23.376;2022-09-09T01:20:58;18.20;46.60
1103;DHT22;538;42.654;23.376;2022-09-09T01:23:43;18.20;46.50
1103;DHT22;538;42.654;23.376;2022-09-09T01:26:19;18.30;45.30
1103;DHT22;538;42.654;23.376;2022-09-09T01:28:49;18.30;45.80
1103;DHT22;538;42.654;23.376;2022-09-09T01:31:20;18.30;45.40
1103;DHT22;538;42.654;23.376;2022-09-09T01:33:48;18.30;45.00
1103;DHT22;538;42.654;23.376;2022-09-09T01:36:24;18.30;44.80
1103;DHT22;538;42.654;23.376;2022-09-09T01:38:53;18.40;45.60
1103;DHT22;538;42.654;23.376;2022-09-09T01:41:22;18.20;45.90
1103;DHT22;538;42.654;23.376;2022-09-09T01:43:49;18.30;45.10
1103;DHT22;538;42.654;23.376;2022-09-09T01:46:18;18.30;44.80
1103;DHT22;538;42.654;23.376;2022-09-09T01:48:48;18.30;44.50
1103;DHT22;538;42.654;23.376;2022-09-09T01:51:16;18.30;44.80
1103;DHT22;538;42.654;23.376;2022-09-09T01:53:44;18.30;45.20
1103;DHT22;538;42.654;23.376;2022-09-09T01:56:24;18.30;44.80
1103;DHT22;538;42.654;23.376;2022-09-09T01:59:10;18.30;46.60
1103;DHT22;538;42.654;23.376;2022-09-09T02:01:46;18.30;45.30
1103;DHT22;538;42.654;23.376;2022-09-09T02:04:27;18.30;44.80
1103;DHT22;538;42.654;23.376;2022-09-09T02:06:57;18.40;46.90
1103;DHT22;538;42.654;23.376;2022-09-09T02:09:26;18.40;46.10
1103;DHT22;538;42.654;23.376;2022-09-09T02:12:02;18.40;47.10
1103;DHT22;538;42.654;23.376;2022-09-09T02:14:36;18.30;47.20
1103;DHT22;538;42.654;23.376;2022-09-09T02:17:09;18.30;48.10
1103;DHT22;538;42.654;23.376;2022-09-09T02:19:39;18.20;49.10
1103;DHT22;538;42.654;23.376;2022-09-09T02:22:07;18.10;48.70
1103;DHT22;538;42.654;23.376;2022-09-09T02:24:36;18.00;48.50
1103;DHT22;538;42.654;23.376;2022-09-09T02:27:07;17.90;49.00
1103;DHT22;538;42.654;23.376;2022-09-09T02:29:37;18.00;49.70
1103;DHT22;538;42.654;23.376;2022-09-09T02:32:08;17.90;50.40
1103;DHT22;538;42.654;23.376;2022-09-09T02:34:40;17.90;51.20
1103;DHT22;538;42.654;23.376;2022-09-09T02:37:09;17.90;50.90
1103;DHT22;538;42.654;23.376;2022-09-09T02:39:37;17.80;50.40
1103;DHT22;538;42.654;23.376;2022-09-09T02:42:06;17.80;52.30
1103;DHT22;538;42.654;23.376;2022-09-09T02:44:34;17.90;51.40
1103;DHT22;538;42.654;23.376;2022-09-09T02:47:14;17.90;50.60
1103;DHT22;538;42.654;23.376;2022-09-09T02:49:48;17.90;50.70
1103;DHT22;538;42.654;23.376;2022-09-09T02:52:23;17.90;50.30
1103;DHT22;538;42.654;23.376;2022-09-09T02:54:59;17.90;50.50
1103;DHT22;538;42.654;23.376;2022-09-09T02:57:31;17.80;52.70
1103;DHT22;538;42.654;23.376;2022-09-09T03:00:00;17.70;55.10
1103;DHT22;538;42.654;23.376;2022-09-09T03:02:27;17.60;56.40
1103;DHT22;538;42.654;23.376;2022-09-09T03:04:55;17.60;57.60
1103;DHT22;538;42.654;23.376;2022-09-09T03:07:23;17.40;62.00
1103;DHT22;538;42.654;23.376;2022-09-09T03:09:50;17.40;63.40
1103;DHT22;538;42.654;23.376;2022-09-09T03:12:20;17.30;65.30
1103;DHT22;538;42.654;23.376;2022-09-09T03:14:48;17.30;66.80
1103;DHT22;538;42.654;23.376;2022-09-09T03:17:15;17.30;66.70
1103;DHT22;538;42.654;23.376;2022-09-09T03:19:43;17.30;67.00
1103;DHT22;538;42.654;23.376;2022-09-09T03:22:10;17.30;66.90
1103;DHT22;538;42.654;23.376;2022-09-09T03:24:38;17.20;68.60
1103;DHT22;538;42.654;23.376;2022-09-09T03:27:05;17.20;69.90
1103;DHT22;538;42.654;23.376;2022-09-09T03:29:32;17.10;71.00
1103;DHT22;538;42.654;23.376;2022-09-09T03:32:01;17.00;70.90
1103;DHT22;538;42.654;23.376;2022-09-09T03:34:29;17.00;71.70
1103;DHT22;538;42.654;23.376;2022-09-09T03:36:56;17.00;73.20
1103;DHT22;538;42.654;23.376;2022-09-09T03:39:23;16.90;74.40
1103;DHT22;538;42.654;23.376;2022-09-09T03:41:50;16.80;76.20
1103;DHT22;538;42.654;23.376;2022-09-09T03:44:17;16.90;77.40
1103;DHT22;538;42.654;23.376;2022-09-09T03:46:44;16.90;77.40
1103;DHT22;538;42.654;23.376;2022-09-09T03:49:13;16.80;78.80
1103;DHT22;538;42.654;23.376;2022-09-09T03:51:40;16.90;77.90
1103;DHT22;538;42.654;23.376;2022-09-09T03:54:08;17.10;75.40
1103;DHT22;538;42.654;23.376;2022-09-09T03:56:36;17.10;73.60
1103;DHT22;538;42.654;23.376;2022-09-09T03:59:03;17.20;72.40
1103;DHT22;538;42.654;23.376;2022-09-09T04:01:30;17.10;71.70
1103;DHT22;538;42.654;23.376;2022-09-09T04:03:57;17.10;71.70
1103;DHT22;538;42.654;23.376;2022-09-09T04:06:26;17.10;73.60
1103;DHT22;538;42.654;23.376;2022-09-09T04:08:53;17.20;72.90
1103;DHT22;538;42.654;23.376;2022-09-09T04:11:21;17.20;71.80
1103;DHT22;538;42.654;23.376;2022-09-09T04:13:48;17.30;72.00
1103;DHT22;538;42.654;23.376;2022-09-09T04:16:15;17.40;70.50
1103;DHT22;538;42.654;23.376;2022-09-09T04:18:43;17.50;68.70
1103;DHT22;538;42.654;23.376;2022-09-09T04:21:11;17.60;67.40
1103;DHT22;538;42.654;23.376;2022-09-09T04:23:40;17.50;66.40
1103;DHT22;538;42.654;23.376;2022-09-09T04:26:07;17.50;66.10
1103;DHT22;538;42.654;23.376;2022-09-09T04:28:35;17.60;65.60
1103;DHT22;538;42.654;23.376;2022-09-09T04:31:06;17.60;65.20
1103;DHT22;538;42.654;23.376;2022-09-09T04:33:35;17.60;65.50
1103;DHT22;538;42.654;23.376;2022-09-09T04:36:02;17.60;66.00
1103;DHT22;538;42.654;23.376;2022-09-09T04:38:29;17.70;66.00
1103;DHT22;538;42.654;23.376;2022-09-09T04:40:58;17.70;66.10
1103;DHT22;538;42.654;23.376;2022-09-09T04:43:25;17.70;65.20
1103;DHT22;538;42.654;23.376;2022-09-09T04:45:53;17.70;66.20
1103;DHT22;538;42.654;23.376;2022-09-09T04:48:20;17.70;66.90
1103;DHT22;538;42.654;23.376;2022-09-09T04:50:55;17.70;65.90
1103;DHT22;538;42.654;23.376;2022-09-09T04:53:22;17.70;63.70
1103;DHT22;538;42.654;23.376;2022-09-09T04:55:50;17.70;62.30
1103;DHT22;538;42.654;23.376;2022-09-09T04:58:19;17.70;62.30
1103;DHT22;538;42.654;23.376;2022-09-09T05:00:48;17.60;61.70
1103;DHT22;538;42.654;23.376;2022-09-09T05:03:15;17.70;58.20
1103;DHT22;538;42.654;23.376;2022-09-09T05:05:42;17.60;57.60
1103;DHT22;538;42.654;23.376;2022-09-09T05:08:10;17.50;55.50
1103;DHT22;538;42.654;23.376;2022-09-09T05:10:38;17.60;55.40
1103;DHT22;538;42.654;23.376;2022-09-09T05:13:07;17.60;54.80
1103;DHT22;538;42.654;23.376;2022-09-09T05:15:36;17.70;54.80
1103;DHT22;538;42.654;23.376;2022-09-09T05:18:03;17.70;55.00
1103;DHT22;538;42.654;23.376;2022-09-09T05:20:30;17.70;56.50
1103;DHT22;538;42.654;23.376;2022-09-09T05:22:57;17.70;54.70
1103;DHT22;538;42.654;23.376;2022-09-09T05:25:24;17.80;53.80
1103;DHT22;538;42.654;23.376;2022-09-09T05:27:52;17.80;51.50
1103;DHT22;538;42.654;23.376;2022-09-09T05:30:20;17.90;50.60
1103;DHT22;538;42.654;23.376;2022-09-09T05:32:49;17.90;51.30
1103;DHT22;538;42.654;23.376;2022-09-09T05:35:17;18.00;50.50
1103;DHT22;538;42.654;23.376;2022-09-09T05:37:44;18.10;51.30
1103;DHT22;538;42.654;23.376;2022-09-09T05:40:12;18.20;50.60
1103;DHT22;538;42.654;23.376;2022-09-09T05:42:39;18.30;48.30
1103;DHT22;538;42.654;23.376;2022-09-09T05:45:07;18.40;46.80
1103;DHT22;538;42.654;23.376;2022-09-09T05:47:34;18.50;43.10
1103;DHT22;538;42.654;23.376;2022-09-09T05:50:05;18.50;42.50
1103;DHT22;538;42.654;23.376;2022-09-09T05:52:32;18.60;43.00
1103;DHT22;538;42.654;23.376;2022-09-09T05:54:59;18.80;42.90
1103;DHT22;538;42.654;23.376;2022-09-09T05:57:26;18.90;42.90
1103;DHT22;538;42.654;23.376;2022-09-09T05:59:53;18.90;40.70
1103;DHT22;538;42.654;23.376;2022-09-09T06:02:20;19.10;40.00
1103;DHT22;538;42.654;23.376;2022-09-09T06:04:47;19.20;38.60
1103;DHT22;538;42.654;23.376;2022-09-09T06:07:16;19.30;38.10
1103;DHT22;538;42.654;23.376;2022-09-09T06:09:43;19.30;36.90
1103;DHT22;538;42.654;23.376;2022-09-09T06:12:10;19.30;36.70
1103;DHT22;538;42.654;23.376;2022-09-09T06:14:37;19.20;36.30
1103;DHT22;538;42.654;23.376;2022-09-09T06:17:04;19.30;35.90
1103;DHT22;538;42.654;23.376;2022-09-09T06:19:32;19.30;35.60
1103;DHT22;538;42.654;23.376;2022-09-09T06:21:59;19.30;36.40
1103;DHT22;538;42.654;23.376;2022-09-09T06:24:27;19.40;36.40
1103;DHT22;538;42.654;23.376;2022-09-09T06:26:55;19.50;35.20
1103;DHT22;538;42.654;23.376;2022-09-09T06:29:23;19.40;33.70
1103;DHT22;538;42.654;23.376;2022-09-09T06:31:50;19.40;33.30
1103;DHT22;538;42.654;23.376;2022-09-09T06:34:17;19.50;32.20
1103;DHT22;538;42.654;23.376;2022-09-09T06:36:44;19.70;32.60
1103;DHT22;538;42.654;23.376;2022-09-09T06:39:11;19.80;33.10
1103;DHT22;538;42.654;23.376;2022-09-09T06:41:40;19.90;32.50
1103;DHT22;538;42.654;23.376;2022-09-09T06:44:08;20.00;32.20
1103;DHT22;538;42.654;23.376;2022-09-09T06:46:36;20.10;32.10
1103;DHT22;538;42.654;23.376;2022-09-09T06:49:05;20.30;31.80
1103;DHT22;538;42.654;23.376;2022-09-09T06:51:34;20.30;29.70
1103;DHT22;538;42.654;23.376;2022-09-09T06:54:02;20.50;29.30
1103;DHT22;538;42.654;23.376;2022-09-09T06:56:30;20.50;27.70
1103;DHT22;538;42.654;23.376;2022-09-09T06:59:00;20.60;27.80
1103;DHT22;538;42.654;23.376;2022-09-09T07:01:30;20.80;27.50
1103;DHT22;538;42.654;23.376;2022-09-09T07:03:58;21.00;27.20
1103;DHT22;538;42.654;23.376;2022-09-09T07:06:27;21.00;26.00
1103;DHT22;538;42.654;23.376;2022-09-09T07:08:56;20.90;24.60
1103;DHT22;538;42.654;23.376;2022-09-09T07:11:26;20.90;24.00
1103;DHT22;538;42.654;23.376;2022-09-09T07:13:53;20.90;24.40
1103;DHT22;538;42.654;23.376;2022-09-09T07:16:24;20.80;24.00
1103;DHT22;538;42.654;23.376;2022-09-09T07:18:51;20.90;23.90
1103;DHT22;538;42.654;23.376;2022-09-09T07:21:24;21.00;23.80
1103;DHT22;538;42.654;23.376;2022-09-09T07:23:52;21.30;23.70
1103;DHT22;538;42.654;23.376;2022-09-09T07:26:20;21.50;23.00
1103;DHT22;538;42.654;23.376;2022-09-09T07:28:48;21.60;22.50
1103;DHT22;538;42.654;23.376;2022-09-09T07:31:16;21.80;22.00
1103;DHT22;538;42.654;23.376;2022-09-09T07:33:46;22.00;21.80
1103;DHT22;538;42.654;23.376;2022-09-09T07:36:17;22.10;21.10
1103;DHT22;538;42.654;23.376;2022-09-09T07:38:49;22.20;20.20
1103;DHT22;538;42.654;23.376;2022-09-09T07:41:18;22.20;19.70
1103;DHT22;538;42.654;23.376;2022-09-09T07:43:47;22.20;20.30
1103;DHT22;538;42.654;23.376;2022-09-09T07:46:16;22.30;20.50
1103;DHT22;538;42.654;23.376;2022-09-09T07:48:47;22.40;20.50
1103;DHT22;538;42.654;23.376;2022-09-09T07:51:18;22.70;20.80
1103;DHT22;538;42.654;23.376;2022-09-09T07:53:47;22.80;19.90
1103;DHT22;538;42.654;23.376;2022-09-09T07:56:16;23.00;18.90
1103;DHT22;538;42.654;23.376;2022-09-09T07:58:45;23.00;18.50
1103;DHT22;538;42.654;23.376;2022-09-09T08:01:19;23.20;18.60
1103;DHT22;538;42.654;23.376;2022-09-09T08:03:53;23.30;18.30
1103;DHT22;538;42.654;23.376;2022-09-09T08:06:21;23.60;18.60
1103;DHT22;538;42.654;23.376;2022-09-09T08:08:51;23.80;17.60
1103;DHT22;538;42.654;23.376;2022-09-09T08:11:18;24.20;17.40
1103;DHT22;538;42.654;23.376;2022-09-09T08:13:45;24.50;16.50
1103;DHT22;538;42.654;23.376;2022-09-09T08:16:15;24.60;15.60
1103;DHT22;538;42.654;23.376;2022-09-09T08:18:42;24.80;15.50
1103;DHT22;538;42.654;23.376;2022-09-09T08:21:13;24.90;13.70
1103;DHT22;538;42.654;23.376;2022-09-09T08:23:41;25.00;14.00
1103;DHT22;538;42.654;23.376;2022-09-09T08:26:13;25.10;14.80
1103;DHT22;538;42.654;23.376;2022-09-09T08:28:41;25.30;14.30
1103;DHT22;538;42.654;23.376;2022-09-09T08:31:10;25.60;14.20
1103;DHT22;538;42.654;23.376;2022-09-09T08:33:37;25.80;14.70
1103;DHT22;538;42.654;23.376;2022-09-09T08:36:06;26.00;13.10
1103;DHT22;538;42.654;23.376;2022-09-09T08:38:36;26.30;12.60
1103;DHT22;538;42.654;23.376;2022-09-09T08:41:36;26.40;11.60
1103;DHT22;538;42.654;23.376;2022-09-09T08:44:09;26.50;11.20
1103;DHT22;538;42.654;23.376;2022-09-09T08:46:44;26.70;11.00
1103;DHT22;538;42.654;23.376;2022-09-09T08:49:23;26.80;11.50
1103;DHT22;538;42.654;23.376;2022-09-09T08:51:54;26.70;11.20
1103;DHT22;538;42.654;23.376;2022-09-09T08:54:23;26.60;11.00
1103;DHT22;538;42.654;23.376;2022-09-09T08:56:52;26.60;10.50
1103;DHT22;538;42.654;23.376;2022-09-09T08:59:19;26.80;10.60
1103;DHT22;538;42.654;23.376;2022-09-09T09:02:00;27.20;10.70
1103;DHT22;538;42.654;23.376;2022-09-09T09:04:45;27.60;10.90
1103;DHT22;538;42.654;23.376;2022-09-09T09:07:22;27.80;10.20
1103;DHT22;538;42.654;23.376;2022-09-09T09:09:57;28.00;9.30
1103;DHT22;538;42.654;23.376;2022-09-09T09:12:35;28.20;9.40
1103;DHT22;538;42.654;23.376;2022-09-09T09:15:04;28.20;9.40
1103;DHT22;538;42.654;23.376;2022-09-09T09:17:37;28.50;8.60
1103;DHT22;538;42.654;23.376;2022-09-09T09:20:10;29.00;8.30
1103;DHT22;538;42.654;23.376;2022-09-09T09:22:43;29.60;6.80
1103;DHT22;538;42.654;23.376;2022-09-09T09:25:17;29.70;5.80
1103;DHT22;538;42.654;23.376;2022-09-09T09:27:52;29.80;5.00
1103;DHT22;538;42.654;23.376;2022-09-09T09:30:31;29.80;5.00
1103;DHT22;538;42.654;23.376;2022-09-09T09:33:14;29.80;5.60
1103;DHT22;538;42.654;23.376;2022-09-09T09:35:41;29.60;5.70
1103;DHT22;538;42.654;23.376;2022-09-09T09:38:16;29.20;5.70
1103;DHT22;538;42.654;23.376;2022-09-09T09:40:52;28.60;6.40
1103;DHT22;538;42.654;23.376;2022-09-09T09:43:26;28.60;7.60
1103;DHT22;538;42.654;23.376;2022-09-09T09:45:53;28.60;6.70
1103;DHT22;538;42.654;23.376;2022-09-09T09:48:21;29.00;6.80
1103;DHT22;538;42.654;23.376;2022-09-09T09:50:50;29.40;5.90
1103;DHT22;538;42.654;23.376;2022-09-09T09:53:22;30.00;5.20
1103;DHT22;538;42.654;23.376;2022-09-09T09:55:55;30.50;4.10
1103;DHT22;538;42.654;23.376;2022-09-09T09:58:22;30.50;4.40
1103;DHT22;538;42.654;23.376;2022-09-09T10:00:51;30.40;4.60
1103;DHT22;538;42.654;23.376;2022-09-09T10:03:22;29.90;5.30
1103;DHT22;538;42.654;23.376;2022-09-09T10:05:50;29.60;5.00
1103;DHT22;538;42.654;23.376;2022-09-09T10:08:18;29.80;5.80
1103;DHT22;538;42.654;23.376;2022-09-09T10:11:12;30.10;5.40
1103;DHT22;538;42.654;23.376;2022-09-09T10:13:51;30.90;5.20
1103;DHT22;538;42.654;23.376;2022-09-09T10:16:38;30.70;5.50
1103;DHT22;538;42.654;23.376;2022-09-09T10:19:12;30.20;5.80
1103;DHT22;538;42.654;23.376;2022-09-09T10:21:57;29.90;5.60
1103;DHT22;538;42.654;23.376;2022-09-09T10:24:49;29.50;6.10
1103;DHT22;538;42.654;23.376;2022-09-09T10:27:24;29.00;6.30
1103;DHT22;538;42.654;23.376;2022-09-09T10:30:04;28.70;6.60
1103;DHT22;538;42.654;23.376;2022-09-09T10:32:41;28.40;7.50
1103;DHT22;538;42.654;23.376;2022-09-09T10:35:13;28.30;8.00
1103;DHT22;538;42.654;23.376;2022-09-09T10:37:53;28.10;7.50
1103;DHT22;538;42.654;23.376;2022-09-09T10:40:32;27.80;7.90
1103;DHT22;538;42.654;23.376;2022-09-09T10:43:11;27.40;8.60
1103;DHT22;538;42.654;23.376;2022-09-09T10:45:48;27.20;8.90
1103;DHT22;538;42.654;23.376;2022-09-09T10:48:30;27.10;8.80
1103;DHT22;538;42.654;23.376;2022-09-09T10:51:07;27.00;9.70
1103;DHT22;538;42.654;23.376;2022-09-09T10:53:49;27.10;10.40
1103;DHT22;538;42.654;23.376;2022-09-09T10:56:20;27.10;10.20
1103;DHT22;538;42.654;23.376;2022-09-09T10:58:53;27.00;10.30
1103;DHT22;538;42.654;23.376;2022-09-09T11:01:28;27.10;10.70
1103;DHT22;538;42.654;23.376;2022-09-09T11:04:03;27.20;10.50
1103;DHT22;538;42.654;23.376;2022-09-09T11:06:36;26.90;9.40
1103;DHT22;538;42.654;23.376;2022-09-09T11:09:05;26.80;10.30
1103;DHT22;538;42.654;23.376;2022-09-09T11:11:36;26.90;10.60
1103;DHT22;538;42.654;23.376;2022-09-09T11:14:10;27.00;10.90
1103;DHT22;538;42.654;23.376;2022-09-09T11:16:41;26.80;10.90
1103;DHT22;538;42.654;23.376;2022-09-09T11:19:15;26.60;11.60
1103;DHT22;538;42.654;23.376;2022-09-09T11:21:46;26.60;11.20
1103;DHT22;538;42.654;23.376;2022-09-09T11:24:18;26.70;11.30
1103;DHT22;538;42.654;23.376;2022-09-09T11:26:51;26.90;11.40
1103;DHT22;538;42.654;23.376;2022-09-09T11:29:36;27.20;11.20
1103;DHT22;538;42.654;23.376;2022-09-09T11:32:19;27.50;11.00
1103;DHT22;538;42.654;23.376;2022-09-09T11:34:53;27.70;10.70
1103;DHT22;538;42.654;23.376;2022-09-09T11:37:48;27.80;10.00
1103;DHT22;538;42.654;23.376;2022-09-09T11:40:21;27.80;10.30
1103;DHT22;538;42.654;23.376;2022-09-09T11:42:49;27.80;10.70
1103;DHT22;538;42.654;23.376;2022-09-09T11:45:29;27.80;10.20
1103;DHT22;538;42.654;23.376;2022-09-09T11:47:57;27.80;10.50
1103;DHT22;538;42.654;23.376;2022-09-09T11:50:33;27.90;10.80
1103;DHT22;538;42.654;23.376;2022-09-09T11:53:19;27.90;10.70
1103;DHT22;538;42.654;23.376;2022-09-09T11:56:24;27.90;10.30
1103;DHT22;538;42.654;23.376;2022-09-09T11:58:57;27.90;10.60
1103;DHT22;538;42.654;23.376;2022-09-09T12:01:42;28.00;10.60
1103;DHT22;538;42.654;23.376;2022-09-09T12:04:29;28.30;10.30
1103;DHT22;538;42.654;23.376;2022-09-09T12:06:59;28.30;10.10
1103;DHT22;538;42.654;23.376;2022-09-09T12:09:40;28.20;10.10
1103;DHT22;538;42.654;23.376;2022-09-09T12:12:30;28.40;9.80
1103;DHT22;538;42.654;23.376;2022-09-09T12:17:44;28.90;8.60
1103;DHT22;538;42.654;23.376;2022-09-09T12:20:14;29.10;8.60
1103;DHT22;538;42.654;23.376;2022-09-09T12:22:52;29.20;8.40
1103;DHT22;538;42.654;23.376;2022-09-09T12:25:28;29.50;8.50
1103;DHT22;538;42.654;23.376;2022-09-09T12:28:05;29.70;8.20
1103;DHT22;538;42.654;23.376;2022-09-09T12:30:40;29.70;7.30
1103;DHT22;538;42.654;23.376;2022-09-09T12:33:11;29.50;7.20
1103;DHT22;538;42.654;23.376;2022-09-09T12:35:40;29.40;8.30
1103;DHT22;538;42.654;23.376;2022-09-09T12:38:13;30.00;7.70
1103;DHT22;538;42.654;23.376;2022-09-09T12:40:41;30.50;6.70
1103;DHT22;538;42.654;23.376;2022-09-09T12:43:17;30.60;7.00
1103;DHT22;538;42.654;23.376;2022-09-09T12:45:44;30.60;7.40
1103;DHT22;538;42.654;23.376;2022-09-09T12:48:15;30.40;7.40
1103;DHT22;538;42.654;23.376;2022-09-09T12:50:47;30.00;8.20
1103;DHT22;538;42.654;23.376;2022-09-09T12:53:21;29.90;8.10
1103;DHT22;538;42.654;23.376;2022-09-09T12:55:51;29.80;8.50
1103;DHT22;538;42.654;23.376;2022-09-09T12:58:19;29.20;7.70
1103;DHT22;538;42.654;23.376;2022-09-09T13:00:51;30.70;9.00
1103;DHT22;538;42.654;23.376;2022-09-09T13:03:21;29.30;8.80
1103;DHT22;538;42.654;23.376;2022-09-09T13:05:49;29.40;7.90
1103;DHT22;538;42.654;23.376;2022-09-09T13:08:17;29.70;8.20
1103;DHT22;538;42.654;23.376;2022-09-09T13:10:49;30.20;7.80
1103;DHT22;538;42.654;23.376;2022-09-09T13:13:21;30.60;7.50
1103;DHT22;538;42.654;23.376;2022-09-09T13:15:51;30.80;6.60
1103;DHT22;538;42.654;23.376;2022-09-09T13:18:23;31.00;6.70
1103;DHT22;538;42.654;23.376;2022-09-09T13:20:51;30.70;6.50
1103;DHT22;538;42.654;23.376;2022-09-09T13:23:19;30.80;6.60
1103;DHT22;538;42.654;23.376;2022-09-09T13:25:54;30.80;6.60
1103;DHT22;538;42.654;23.376;2022-09-09T13:28:23;30.90;6.60
1103;DHT22;538;42.654;23.376;2022-09-09T13:30:58;30.90;6.60
1103;DHT22;538;42.654;23.376;2022-09-09T13:33:32;30.90;6.90
1103;DHT22;538;42.654;23.376;2022-09-09T13:36:02;30.90;6.60
1103;DHT22;538;42.654;23.376;2022-09-09T13:38:33;30.80;7.20
1103;DHT22;538;42.654;23.376;2022-09-09T13:41:02;30.70;7.30
1103;DHT22;538;42.654;23.376;2022-09-09T13:43:33;30.70;7.10
1103;DHT22;538;42.654;23.376;2022-09-09T13:46:23;30.60;7.50
1103;DHT22;538;42.654;23.376;2022-09-09T13:48:55;30.40;8.10
1103;DHT22;538;42.654;23.376;2022-09-09T13:51:37;30.10;8.10
1103;DHT22;538;42.654;23.376;2022-09-09T13:54:05;29.90;8.80
1103;DHT22;538;42.654;23.376;2022-09-09T13:56:33;29.70;9.00
1103;DHT22;538;42.654;23.376;2022-09-09T13:59:01;29.30;9.60
1103;DHT22;538;42.654;23.376;2022-09-09T14:01:28;29.40;9.50
1103;DHT22;538;42.654;23.376;2022-09-09T14:03:57;29.50;8.70
1103;DHT22;538;42.654;23.376;2022-09-09T14:06:24;29.40;9.40
1103;DHT22;538;42.654;23.376;2022-09-09T14:08:52;29.20;9.90
1103;DHT22;538;42.654;23.376;2022-09-09T14:11:20;29.00;10.40
1103;DHT22;538;42.654;23.376;2022-09-09T14:13:48;29.00;10.00
1103;DHT22;538;42.654;23.376;2022-09-09T14:16:15;29.10;10.30
1103;DHT22;538;42.654;23.376;2022-09-09T14:18:43;29.30;10.00
1103;DHT22;538;42.654;23.376;2022-09-09T14:21:12;29.70;9.20
1103;DHT22;538;42.654;23.376;2022-09-09T14:23:39;29.90;8.80
1103;DHT22;538;42.654;23.376;2022-09-09T14:26:07;29.80;8.90
1103;DHT22;538;42.654;23.376;2022-09-09T14:28:35;29.70;8.90
1103;DHT22;538;42.654;23.376;2022-09-09T14:31:03;29.60;9.40
1103;DHT22;538;42.654;23.376;2022-09-09T14:33:31;29.50;9.20
1103;DHT22;538;42.654;23.376;2022-09-09T14:35:59;29.50;10.10
1103;DHT22;538;42.654;23.376;2022-09-09T14:38:31;29.50;10.10
1103;DHT22;538;42.654;23.376;2022-09-09T14:40:59;29.30;10.00
1103;DHT22;538;42.654;23.376;2022-09-09T14:43:29;29.30;10.00
1103;DHT22;538;42.654;23.376;2022-09-09T14:45:58;29.10;9.90
1103;DHT22;538;42.654;23.376;2022-09-09T14:48:31;28.90;10.00
1103;DHT22;538;42.654;23.376;2022-09-09T14:51:05;28.70;10.90
1103;DHT22;538;42.654;23.376;2022-09-09T14:53:34;28.50;11.30
1103;DHT22;538;42.654;23.376;2022-09-09T14:56:05;28.30;12.10
1103;DHT22;538;42.654;23.376;2022-09-09T14:58:32;28.10;12.60
1103;DHT22;538;42.654;23.376;2022-09-09T15:01:04;27.90;12.70
1103;DHT22;538;42.654;23.376;2022-09-09T15:03:32;27.80;12.60
1103;DHT22;538;42.654;23.376;2022-09-09T15:06:04;27.60;12.40
1103;DHT22;538;42.654;23.376;2022-09-09T15:08:31;27.50;12.90
1103;DHT22;538;42.654;23.376;2022-09-09T15:11:01;27.40;12.70
1103;DHT22;538;42.654;23.376;2022-09-09T15:13:28;27.40;13.70
1103;DHT22;538;42.654;23.376;2022-09-09T15:15:55;27.20;13.40
1103;DHT22;538;42.654;23.376;2022-09-09T15:18:23;27.20;13.50
1103;DHT22;538;42.654;23.376;2022-09-09T15:20:51;27.10;13.00
1103;DHT22;538;42.654;23.376;2022-09-09T15:23:18;27.00;13.20
1103;DHT22;538;42.654;23.376;2022-09-09T15:25:52;27.00;13.10
1103;DHT22;538;42.654;23.376;2022-09-09T15:28:20;27.00;13.60
1103;DHT22;538;42.654;23.376;2022-09-09T15:30:48;27.10;13.50
1103;DHT22;538;42.654;23.376;2022-09-09T15:33:15;27.20;13.60
1103;DHT22;538;42.654;23.376;2022-09-09T15:35:42;27.20;13.70
1103;DHT22;538;42.654;23.376;2022-09-09T15:38:09;27.50;13.60
1103;DHT22;538;42.654;23.376;2022-09-09T15:40:38;27.60;13.20
1103;DHT22;538;42.654;23.376;2022-09-09T15:43:06;27.70;13.30
1103;DHT22;538;42.654;23.376;2022-09-09T15:45:36;27.80;13.30
1103;DHT22;538;42.654;23.376;2022-09-09T15:48:04;27.70;13.30
1103;DHT22;538;42.654;23.376;2022-09-09T15:50:31;27.70;13.30
1103;DHT22;538;42.654;23.376;2022-09-09T15:52:58;27.60;13.50
1103;DHT22;538;42.654;23.376;2022-09-09T15:55:25;27.50;13.40
1103;DHT22;538;42.654;23.376;2022-09-09T15:57:52;27.50;13.90
1103;DHT22;538;42.654;23.376;2022-09-09T16:00:21;27.40;13.80
1103;DHT22;538;42.654;23.376;2022-09-09T16:02:50;27.30;13.80
1103;DHT22;538;42.654;23.376;2022-09-09T16:05:17;27.20;14.00
1103;DHT22;538;42.654;23.376;2022-09-09T16:07:44;27.10;14.50
1103;DHT22;538;42.654;23.376;2022-09-09T16:10:11;26.90;14.50
1103;DHT22;538;42.654;23.376;2022-09-09T16:12:39;26.80;13.60
1103;DHT22;538;42.654;23.376;2022-09-09T16:15:06;26.80;14.10
1103;DHT22;538;42.654;23.376;2022-09-09T16:17:34;26.70;14.50
1103;DHT22;538;42.654;23.376;2022-09-09T16:20:05;26.60;14.50
1103;DHT22;538;42.654;23.376;2022-09-09T16:22:34;26.60;14.60
1103;DHT22;538;42.654;23.376;2022-09-09T16:25:02;26.40;14.70
1103;DHT22;538;42.654;23.376;2022-09-09T16:27:29;26.40;15.20
1103;DHT22;538;42.654;23.376;2022-09-09T16:29:56;26.30;15.60
1103;DHT22;538;42.654;23.376;2022-09-09T16:32:23;26.20;15.40